sensor_id;sensor_type;location;lat;lon;timestamp;temperature;humidity
76293;DHT22;67256;51.154;4.164;2023-05-02T00:00:38;13.50;77.60
76293;DHT22;67256;51.154;4.164;2023-05-02T00:03:04;13.70;77.10
76293;DHT22;67256;51.154;4.164;2023-05-02T00:05:30;13.70;76.80
76293;DHT22;67256;51.154;4.164;2023-05-02T00:07:56;13.80;76.40
76293;DHT22;67256;51.154;4.164;2023-05-02T00:10:22;13.90;76.10
76293;DHT22;67256;51.154;4.164;2023-05-02T00:12:47;13.90;76.30
76293;DHT22;67256;51.154;4.164;2023-05-02T00:15:13;13.90;76.40
76293;DHT22;67256;51.154;4.164;2023-05-02T00:17:40;13.80;76.50
76293;DHT22;67256;51.154;4.164;2023-05-02T00:20:09;13.80;76.50
76293;DHT22;67256;51.154;4.164;2023-05-02T00:22:36;13.80;76.60
76293;DHT22;67256;51.154;4.164;2023-05-02T00:25:02;13.80;76.60
76293;DHT22;67256;51.154;4.164;2023-05-02T00:27:29;13.90;76.00
76293;DHT22;67256;51.154;4.164;2023-05-02T00:29:56;13.90;75.50
76293;DHT22;67256;51.154;4.164;2023-05-02T00:32:22;13.90;76.10
76293;DHT22;67256;51.154;4.164;2023-05-02T00:34:48;13.80;76.20
76293;DHT22;67256;51.154;4.164;2023-05-02T00:37:14;13.80;75.80
76293;DHT22;67256;51.154;4.164;2023-05-02T00:39:40;13.70;76.60
76293;DHT22;67256;51.154;4.164;2023-05-02T00:42:08;13.80;76.20
76293;DHT22;67256;51.154;4.164;2023-05-02T00:44:34;13.70;76.50
76293;DHT22;67256;51.154;4.164;2023-05-02T00:47:00;13.70;76.50
76293;DHT22;67256;51.154;4.164;2023-05-02T00:49:26;13.70;76.30
76293;DHT22;67256;51.154;4.164;2023-05-02T00:51:57;13.90;75.80
76293;DHT22;67256;51.154;4.164;2023-05-02T00:54:22;13.90;75.30
76293;DHT22;67256;51.154;4.164;2023-05-02T00:56:48;13.90;76.00
76293;DHT22;67256;51.154;4.164;2023-05-02T00:59:15;13.80;75.60
76293;DHT22;67256;51.154;4.164;2023-05-02T01:01:48;13.90;75.50
76293;DHT22;67256;51.154;4.164;2023-05-02T01:12:42;13.70;76.50
76293;DHT22;67256;51.154;4.164;2023-05-02T01:15:18;13.80;75.70
76293;DHT22;67256;51.154;4.164;2023-05-02T01:17:45;13.80;75.70
76293;DHT22;67256;51.154;4.164;2023-05-02T01:20:15;13.60;76.90
76293;DHT22;67256;51.154;4.164;2023-05-02T01:22:42;13.60;76.60
76293;DHT22;67256;51.154;4.164;2023-05-02T01:30:32;13.00;79.10
76293;DHT22;67256;51.154;4.164;2023-05-02T01:33:04;12.90;79.00
76293;DHT22;67256;51.154;4.164;2023-05-02T01:35:31;12.80;79.70
76293;DHT22;67256;51.154;4.164;2023-05-02T01:37:59;12.80;80.20
76293;DHT22;67256;51.154;4.164;2023-05-02T01:40:28;13.00;79.50
76293;DHT22;67256;51.154;4.164;2023-05-02T01:42:55;13.10;78.80
76293;DHT22;67256;51.154;4.164;2023-05-02T01:45:23;13.20;77.70
76293;DHT22;67256;51.154;4.164;2023-05-02T01:47:50;13.30;77.90
76293;DHT22;67256;51.154;4.164;2023-05-02T01:50:21;13.30;77.40
76293;DHT22;67256;51.154;4.164;2023-05-02T01:52:50;13.20;77.90
76293;DHT22;67256;51.154;4.164;2023-05-02T01:55:21;13.20;77.50
76293;DHT22;67256;51.154;4.164;2023-05-02T01:57:55;13.30;77.20
76293;DHT22;67256;51.154;4.164;2023-05-02T02:00:23;13.40;76.20
76293;DHT22;67256;51.154;4.164;2023-05-02T02:02:51;13.20;76.80
76293;DHT22;67256;51.154;4.164;2023-05-02T02:05:17;13.30;77.00
76293;DHT22;67256;51.154;4.164;2023-05-02T02:07:43;13.50;76.10
76293;DHT22;67256;51.154;4.164;2023-05-02T02:10:10;13.60;75.20
76293;DHT22;67256;51.154;4.164;2023-05-02T02:12:50;13.60;75.40
76293;DHT22;67256;51.154;4.164;2023-05-02T02:15:26;13.60;75.30
76293;DHT22;67256;51.154;4.164;2023-05-02T02:17:59;13.50;75.80
76293;DHT22;67256;51.154;4.164;2023-05-02T02:20:29;13.40;76.20
76293;DHT22;67256;51.154;4.164;2023-05-02T02:22:58;13.20;76.80
76293;DHT22;67256;51.154;4.164;2023-05-02T02:25:25;13.30;76.90
76293;DHT22;67256;51.154;4.164;2023-05-02T02:27:55;13.40;76.40
76293;DHT22;67256;51.154;4.164;2023-05-02T02:30:21;13.40;76.20
76293;DHT22;67256;51.154;4.164;2023-05-02T02:32:56;13.40;75.90
76293;DHT22;67256;51.154;4.164;2023-05-02T02:35:22;13.40;76.00
76293;DHT22;67256;51.154;4.164;2023-05-02T02:37:57;13.40;76.40
76293;DHT22;67256;51.154;4.164;2023-05-02T02:41:15;13.30;76.50
76293;DHT22;67256;51.154;4.164;2023-05-02T02:44:09;13.30;76.20
76293;DHT22;67256;51.154;4.164;2023-05-02T02:47:18;13.40;76.20
76293;DHT22;67256;51.154;4.164;2023-05-02T02:49:54;13.30;76.20
76293;DHT22;67256;51.154;4.164;2023-05-02T02:52:35;13.20;76.70
76293;DHT22;67256;51.154;4.164;2023-05-02T02:58:06;13.30;76.60
76293;DHT22;67256;51.154;4.164;2023-05-02T03:00:42;13.30;76.40
76293;DHT22;67256;51.154;4.164;2023-05-02T03:03:11;13.30;76.10
76293;DHT22;67256;51.154;4.164;2023-05-02T03:05:38;13.20;76.40
76293;DHT22;67256;51.154;4.164;2023-05-02T03:08:07;13.30;76.00
76293;DHT22;67256;51.154;4.164;2023-05-02T03:10:33;13.30;76.30
76293;DHT22;67256;51.154;4.164;2023-05-02T03:12:58;13.30;76.00
76293;DHT22;67256;51.154;4.164;2023-05-02T03:17:58;13.30;76.00
76293;DHT22;67256;51.154;4.164;2023-05-02T03:20:27;13.30;75.50
76293;DHT22;67256;51.154;4.164;2023-05-02T03:22:56;13.30;76.20
76293;DHT22;67256;51.154;4.164;2023-05-02T03:25:22;13.20;75.50
76293;DHT22;67256;51.154;4.164;2023-05-02T03:27:50;13.30;75.50
76293;DHT22;67256;51.154;4.164;2023-05-02T03:30:16;13.40;74.90
76293;DHT22;67256;51.154;4.164;2023-05-02T03:32:49;13.40;74.80
76293;DHT22;67256;51.154;4.164;2023-05-02T03:35:17;13.20;75.80
76293;DHT22;67256;51.154;4.164;2023-05-02T03:37:44;13.10;75.90
76293;DHT22;67256;51.154;4.164;2023-05-02T03:40:10;13.10;76.00
76293;DHT22;67256;51.154;4.164;2023-05-02T03:42:36;12.90;76.50
76293;DHT22;67256;51.154;4.164;2023-05-02T03:45:08;12.60;77.60
76293;DHT22;67256;51.154;4.164;2023-05-02T03:47:33;12.60;77.80
76293;DHT22;67256;51.154;4.164;2023-05-02T03:49:59;12.60;77.20
76293;DHT22;67256;51.154;4.164;2023-05-02T03:52:26;12.40;79.10
76293;DHT22;67256;51.154;4.164;2023-05-02T03:54:53;12.50;77.90
76293;DHT22;67256;51.154;4.164;2023-05-02T03:57:19;12.40;78.60
76293;DHT22;67256;51.154;4.164;2023-05-02T03:59:48;12.30;79.20
76293;DHT22;67256;51.154;4.164;2023-05-02T04:02:14;12.40;78.80
76293;DHT22;67256;51.154;4.164;2023-05-02T04:04:40;12.50;78.50
76293;DHT22;67256;51.154;4.164;2023-05-02T04:07:07;12.50;78.30
76293;DHT22;67256;51.154;4.164;2023-05-02T04:09:34;12.50;78.20
76293;DHT22;67256;51.154;4.164;2023-05-02T04:12:00;12.60;77.70
76293;DHT22;67256;51.154;4.164;2023-05-02T04:14:28;12.50;78.20
76293;DHT22;67256;51.154;4.164;2023-05-02T04:16:57;12.70;77.50
76293;DHT22;67256;51.154;4.164;2023-05-02T04:19:22;12.70;76.90
76293;DHT22;67256;51.154;4.164;2023-05-02T04:21:48;12.70;77.30
76293;DHT22;67256;51.154;4.164;2023-05-02T04:24:14;12.80;77.10
76293;DHT22;67256;51.154;4.164;2023-05-02T04:26:39;12.80;77.20
76293;DHT22;67256;51.154;4.164;2023-05-02T04:29:06;12.80;77.00
76293;DHT22;67256;51.154;4.164;2023-05-02T04:31:31;12.80;77.20
76293;DHT22;67256;51.154;4.164;2023-05-02T04:33:57;12.90;77.20
76293;DHT22;67256;51.154;4.164;2023-05-02T04:36:23;12.90;77.00
76293;DHT22;67256;51.154;4.164;2023-05-02T04:38:50;12.80;77.60
76293;DHT22;67256;51.154;4.164;2023-05-02T04:41:16;12.50;79.00
76293;DHT22;67256;51.154;4.164;2023-05-02T04:43:42;12.60;78.70
76293;DHT22;67256;51.154;4.164;2023-05-02T04:46:07;12.50;78.90
76293;DHT22;67256;51.154;4.164;2023-05-02T04:48:33;12.40;79.10
76293;DHT22;67256;51.154;4.164;2023-05-02T04:50:58;12.30;79.60
76293;DHT22;67256;51.154;4.164;2023-05-02T04:53:24;12.20;80.30
76293;DHT22;67256;51.154;4.164;2023-05-02T04:55:53;12.20;80.00
76293;DHT22;67256;51.154;4.164;2023-05-02T04:58:18;12.10;80.00
76293;DHT22;67256;51.154;4.164;2023-05-02T05:00:44;12.10;79.90
76293;DHT22;67256;51.154;4.164;2023-05-02T05:03:10;12.20;79.50
76293;DHT22;67256;51.154;4.164;2023-05-02T05:05:36;12.10;79.90
76293;DHT22;67256;51.154;4.164;2023-05-02T05:08:02;12.10;79.90
76293;DHT22;67256;51.154;4.164;2023-05-02T05:10:27;12.10;79.80
76293;DHT22;67256;51.154;4.164;2023-05-02T05:12:53;12.00;79.10
76293;DHT22;67256;51.154;4.164;2023-05-02T05:15:19;11.90;79.80
76293;DHT22;67256;51.154;4.164;2023-05-02T05:17:49;11.90;79.60
76293;DHT22;67256;51.154;4.164;2023-05-02T05:20:15;11.90;79.40
76293;DHT22;67256;51.154;4.164;2023-05-02T05:22:41;11.90;78.80
76293;DHT22;67256;51.154;4.164;2023-05-02T05:25:08;11.80;79.10
76293;DHT22;67256;51.154;4.164;2023-05-02T05:27:34;11.90;77.80
76293;DHT22;67256;51.154;4.164;2023-05-02T05:30:00;11.90;75.80
76293;DHT22;67256;51.154;4.164;2023-05-02T05:32:26;11.80;76.30
76293;DHT22;67256;51.154;4.164;2023-05-02T05:34:52;11.80;76.60
76293;DHT22;67256;51.154;4.164;2023-05-02T05:37:19;11.70;77.30
76293;DHT22;67256;51.154;4.164;2023-05-02T05:39:46;11.70;77.10
76293;DHT22;67256;51.154;4.164;2023-05-02T05:42:13;11.80;76.20
76293;DHT22;67256;51.154;4.164;2023-05-02T05:44:39;11.70;75.60
76293;DHT22;67256;51.154;4.164;2023-05-02T05:47:04;11.60;75.50
76293;DHT22;67256;51.154;4.164;2023-05-02T05:49:30;11.60;75.10
76293;DHT22;67256;51.154;4.164;2023-05-02T05:51:57;11.50;75.00
76293;DHT22;67256;51.154;4.164;2023-05-02T05:54:22;11.70;75.00
76293;DHT22;67256;51.154;4.164;2023-05-02T05:56:48;11.70;74.50
76293;DHT22;67256;51.154;4.164;2023-05-02T05:59:14;11.70;74.20
76293;DHT22;67256;51.154;4.164;2023-05-02T06:01:40;11.80;74.80
76293;DHT22;67256;51.154;4.164;2023-05-02T06:04:06;11.90;73.70
76293;DHT22;67256;51.154;4.164;2023-05-02T06:06:32;11.70;73.10
76293;DHT22;67256;51.154;4.164;2023-05-02T06:08:59;11.60;73.10
76293;DHT22;67256;51.154;4.164;2023-05-02T06:11:24;11.50;73.80
76293;DHT22;67256;51.154;4.164;2023-05-02T06:13:53;11.60;73.30
76293;DHT22;67256;51.154;4.164;2023-05-02T06:16:19;11.60;72.80
76293;DHT22;67256;51.154;4.164;2023-05-02T06:18:45;11.60;72.80
76293;DHT22;67256;51.154;4.164;2023-05-02T06:21:14;11.70;73.20
76293;DHT22;67256;51.154;4.164;2023-05-02T06:23:40;11.70;72.30
76293;DHT22;67256;51.154;4.164;2023-05-02T06:26:06;11.80;71.80
76293;DHT22;67256;51.154;4.164;2023-05-02T06:28:31;11.90;71.50
76293;DHT22;67256;51.154;4.164;2023-05-02T06:31:03;12.00;69.90
76293;DHT22;67256;51.154;4.164;2023-05-02T06:33:29;11.80;70.20
76293;DHT22;67256;51.154;4.164;2023-05-02T06:35:56;11.80;70.30
76293;DHT22;67256;51.154;4.164;2023-05-02T06:38:23;11.90;69.50
76293;DHT22;67256;51.154;4.164;2023-05-02T06:40:49;11.90;69.50
76293;DHT22;67256;51.154;4.164;2023-05-02T06:43:15;12.00;69.90
76293;DHT22;67256;51.154;4.164;2023-05-02T06:45:41;11.90;70.00
76293;DHT22;67256;51.154;4.164;2023-05-02T06:48:07;12.00;69.40
76293;DHT22;67256;51.154;4.164;2023-05-02T06:50:33;11.90;69.80
76293;DHT22;67256;51.154;4.164;2023-05-02T06:52:59;12.10;69.10
76293;DHT22;67256;51.154;4.164;2023-05-02T06:55:26;12.00;69.40
76293;DHT22;67256;51.154;4.164;2023-05-02T06:57:53;12.00;68.70
76293;DHT22;67256;51.154;4.164;2023-05-02T07:00:19;12.20;68.90
76293;DHT22;67256;51.154;4.164;2023-05-02T07:02:47;12.00;67.70
76293;DHT22;67256;51.154;4.164;2023-05-02T07:05:13;12.00;68.20
76293;DHT22;67256;51.154;4.164;2023-05-02T07:07:40;11.80;69.20
76293;DHT22;67256;51.154;4.164;2023-05-02T07:10:07;12.00;69.20
76293;DHT22;67256;51.154;4.164;2023-05-02T07:12:33;12.10;68.70
76293;DHT22;67256;51.154;4.164;2023-05-02T07:14:58;12.10;68.70
76293;DHT22;67256;51.154;4.164;2023-05-02T07:17:24;12.20;68.70
76293;DHT22;67256;51.154;4.164;2023-05-02T07:19:51;12.30;69.10
76293;DHT22;67256;51.154;4.164;2023-05-02T07:22:17;12.20;68.90
76293;DHT22;67256;51.154;4.164;2023-05-02T07:24:43;12.30;68.30
76293;DHT22;67256;51.154;4.164;2023-05-02T07:27:10;12.10;68.30
76293;DHT22;67256;51.154;4.164;2023-05-02T07:29:36;12.10;68.60
76293;DHT22;67256;51.154;4.164;2023-05-02T07:32:02;12.10;67.20
76293;DHT22;67256;51.154;4.164;2023-05-02T07:34:27;12.00;67.80
76293;DHT22;67256;51.154;4.164;2023-05-02T07:36:53;12.00;68.00
76293;DHT22;67256;51.154;4.164;2023-05-02T07:39:21;12.00;68.10
76293;DHT22;67256;51.154;4.164;2023-05-02T07:41:49;12.10;68.50
76293;DHT22;67256;51.154;4.164;2023-05-02T07:44:15;12.30;68.50
76293;DHT22;67256;51.154;4.164;2023-05-02T07:46:41;12.30;66.50
76293;DHT22;67256;51.154;4.164;2023-05-02T07:49:06;12.40;65.00
76293;DHT22;67256;51.154;4.164;2023-05-02T07:51:32;12.40;64.50
76293;DHT22;67256;51.154;4.164;2023-05-02T07:53:58;12.30;64.50
76293;DHT22;67256;51.154;4.164;2023-05-02T07:56:24;12.30;64.20
76293;DHT22;67256;51.154;4.164;2023-05-02T07:58:50;12.30;64.50
76293;DHT22;67256;51.154;4.164;2023-05-02T08:01:18;12.20;64.90
76293;DHT22;67256;51.154;4.164;2023-05-02T08:03:45;12.30;64.80
76293;DHT22;67256;51.154;4.164;2023-05-02T08:06:13;12.30;65.20
76293;DHT22;67256;51.154;4.164;2023-05-02T08:08:39;12.40;64.20
76293;DHT22;67256;51.154;4.164;2023-05-02T08:11:05;12.50;63.50
76293;DHT22;67256;51.154;4.164;2023-05-02T08:13:31;12.50;64.10
76293;DHT22;67256;51.154;4.164;2023-05-02T08:15:56;12.70;64.60
76293;DHT22;67256;51.154;4.164;2023-05-02T08:18:26;12.70;63.30
76293;DHT22;67256;51.154;4.164;2023-05-02T08:20:54;12.70;62.50
76293;DHT22;67256;51.154;4.164;2023-05-02T08:23:22;12.60;61.60
76293;DHT22;67256;51.154;4.164;2023-05-02T08:25:47;12.60;62.00
76293;DHT22;67256;51.154;4.164;2023-05-02T08:28:13;12.50;61.50
76293;DHT22;67256;51.154;4.164;2023-05-02T08:30:41;12.60;63.40
76293;DHT22;67256;51.154;4.164;2023-05-02T08:33:09;12.70;62.80
76293;DHT22;67256;51.154;4.164;2023-05-02T08:35:35;12.80;62.70
76293;DHT22;67256;51.154;4.164;2023-05-02T08:38:01;12.80;63.00
76293;DHT22;67256;51.154;4.164;2023-05-02T08:40:26;12.80;63.30
76293;DHT22;67256;51.154;4.164;2023-05-02T08:42:53;12.60;63.90
76293;DHT22;67256;51.154;4.164;2023-05-02T08:45:20;12.40;63.50
76293;DHT22;67256;51.154;4.164;2023-05-02T08:47:46;12.40;63.60
76293;DHT22;67256;51.154;4.164;2023-05-02T08:50:15;12.40;63.70
76293;DHT22;67256;51.154;4.164;2023-05-02T08:52:43;12.50;61.70
76293;DHT22;67256;51.154;4.164;2023-05-02T08:55:11;12.60;62.40
76293;DHT22;67256;51.154;4.164;2023-05-02T08:57:38;12.50;62.40
76293;DHT22;67256;51.154;4.164;2023-05-02T09:00:06;12.50;62.60
76293;DHT22;67256;51.154;4.164;2023-05-02T09:02:36;12.50;62.60
76293;DHT22;67256;51.154;4.164;2023-05-02T09:05:06;12.70;61.90
76293;DHT22;67256;51.154;4.164;2023-05-02T09:07:46;12.70;60.60
76293;DHT22;67256;51.154;4.164;2023-05-02T09:10:13;12.80;60.80
76293;DHT22;67256;51.154;4.164;2023-05-02T09:12:39;12.80;62.00
76293;DHT22;67256;51.154;4.164;2023-05-02T09:15:15;12.60;61.70
76293;DHT22;67256;51.154;4.164;2023-05-02T09:17:45;12.60;60.80
76293;DHT22;67256;51.154;4.164;2023-05-02T09:20:12;12.50;60.70
76293;DHT22;67256;51.154;4.164;2023-05-02T09:22:39;12.50;61.00
76293;DHT22;67256;51.154;4.164;2023-05-02T09:25:14;12.50;60.40
76293;DHT22;67256;51.154;4.164;2023-05-02T09:27:54;12.50;61.30
76293;DHT22;67256;51.154;4.164;2023-05-02T09:30:24;12.60;61.10
76293;DHT22;67256;51.154;4.164;2023-05-02T09:32:50;12.70;60.50
76293;DHT22;67256;51.154;4.164;2023-05-02T09:35:22;12.90;60.40
76293;DHT22;67256;51.154;4.164;2023-05-02T09:37:52;12.90;59.70
76293;DHT22;67256;51.154;4.164;2023-05-02T09:40:18;12.90;60.70
76293;DHT22;67256;51.154;4.164;2023-05-02T09:42:44;13.00;60.40
76293;DHT22;67256;51.154;4.164;2023-05-02T09:45:21;13.00;60.20
76293;DHT22;67256;51.154;4.164;2023-05-02T09:47:47;13.00;59.90
76293;DHT22;67256;51.154;4.164;2023-05-02T09:50:35;13.00;60.20
76293;DHT22;67256;51.154;4.164;2023-05-02T09:53:05;13.00;61.40
76293;DHT22;67256;51.154;4.164;2023-05-02T09:55:31;12.90;61.10
76293;DHT22;67256;51.154;4.164;2023-05-02T09:57:58;12.90;61.70
76293;DHT22;67256;51.154;4.164;2023-05-02T10:00:57;12.90;61.60
76293;DHT22;67256;51.154;4.164;2023-05-02T10:03:25;12.90;62.60
76293;DHT22;67256;51.154;4.164;2023-05-02T10:05:51;13.00;61.60
76293;DHT22;67256;51.154;4.164;2023-05-02T10:08:20;12.90;61.60
76293;DHT22;67256;51.154;4.164;2023-05-02T10:10:59;12.80;61.60
76293;DHT22;67256;51.154;4.164;2023-05-02T10:13:26;12.90;61.70
76293;DHT22;67256;51.154;4.164;2023-05-02T10:16:03;12.80;61.20
76293;DHT22;67256;51.154;4.164;2023-05-02T10:21:07;13.00;60.50
76293;DHT22;67256;51.154;4.164;2023-05-02T10:23:40;13.10;58.90
76293;DHT22;67256;51.154;4.164;2023-05-02T10:26:06;13.20;60.20
76293;DHT22;67256;51.154;4.164;2023-05-02T10:28:32;13.20;59.10
76293;DHT22;67256;51.154;4.164;2023-05-02T10:31:00;13.10;58.70
76293;DHT22;67256;51.154;4.164;2023-05-02T10:33:28;13.10;59.70
76293;DHT22;67256;51.154;4.164;2023-05-02T10:35:56;13.20;59.70
76293;DHT22;67256;51.154;4.164;2023-05-02T10:38:22;13.30;58.70
76293;DHT22;67256;51.154;4.164;2023-05-02T10:40:58;13.30;57.60
76293;DHT22;67256;51.154;4.164;2023-05-02T10:43:31;13.20;56.90
76293;DHT22;67256;51.154;4.164;2023-05-02T10:45:57;13.20;57.30
76293;DHT22;67256;51.154;4.164;2023-05-02T10:48:24;13.20;56.60
76293;DHT22;67256;51.154;4.164;2023-05-02T10:50:58;13.20;57.40
76293;DHT22;67256;51.154;4.164;2023-05-02T10:53:33;13.40;57.70
76293;DHT22;67256;51.154;4.164;2023-05-02T10:58:41;13.20;56.90
76293;DHT22;67256;51.154;4.164;2023-05-02T11:03:59;13.20;57.30
76293;DHT22;67256;51.154;4.164;2023-05-02T11:06:29;13.40;56.90
76293;DHT22;67256;51.154;4.164;2023-05-02T11:11:49;13.60;54.70
76293;DHT22;67256;51.154;4.164;2023-05-02T11:24:52;13.30;55.70
76293;DHT22;67256;51.154;4.164;2023-05-02T11:30:05;13.50;55.60
76293;DHT22;67256;51.154;4.164;2023-05-02T11:35:18;13.40;55.80
76293;DHT22;67256;51.154;4.164;2023-05-02T11:37:59;13.50;55.60
76293;DHT22;67256;51.154;4.164;2023-05-02T11:40:27;13.50;55.30
76293;DHT22;67256;51.154;4.164;2023-05-02T11:42:53;13.40;55.50
76293;DHT22;67256;51.154;4.164;2023-05-02T11:45:19;13.50;55.60
76293;DHT22;67256;51.154;4.164;2023-05-02T11:47:46;13.60;56.10
76293;DHT22;67256;51.154;4.164;2023-05-02T11:50:13;13.50;54.60
76293;DHT22;67256;51.154;4.164;2023-05-02T11:52:41;13.40;54.20
76293;DHT22;67256;51.154;4.164;2023-05-02T11:55:10;13.40;56.40
76293;DHT22;67256;51.154;4.164;2023-05-02T11:57:37;13.50;55.80
76293;DHT22;67256;51.154;4.164;2023-05-02T12:00:03;13.50;55.70
76293;DHT22;67256;51.154;4.164;2023-05-02T12:02:36;13.50;54.40
76293;DHT22;67256;51.154;4.164;2023-05-02T12:05:03;13.40;54.10
76293;DHT22;67256;51.154;4.164;2023-05-02T12:07:44;13.40;55.00
76293;DHT22;67256;51.154;4.164;2023-05-02T12:10:12;13.30;53.10
76293;DHT22;67256;51.154;4.164;2023-05-02T12:12:39;13.30;53.40
76293;DHT22;67256;51.154;4.164;2023-05-02T12:15:06;13.40;53.80
76293;DHT22;67256;51.154;4.164;2023-05-02T12:17:36;13.60;53.50
76293;DHT22;67256;51.154;4.164;2023-05-02T12:20:04;13.50;52.90
76293;DHT22;67256;51.154;4.164;2023-05-02T12:22:31;13.40;53.20
76293;DHT22;67256;51.154;4.164;2023-05-02T12:24:57;13.50;53.60
76293;DHT22;67256;51.154;4.164;2023-05-02T12:27:23;13.50;54.10
76293;DHT22;67256;51.154;4.164;2023-05-02T12:29:49;13.70;53.10
76293;DHT22;67256;51.154;4.164;2023-05-02T12:32:29;13.70;51.80
76293;DHT22;67256;51.154;4.164;2023-05-02T12:34:59;13.70;52.40
76293;DHT22;67256;51.154;4.164;2023-05-02T12:37:26;13.70;53.30
76293;DHT22;67256;51.154;4.164;2023-05-02T12:39:56;13.60;53.40
76293;DHT22;67256;51.154;4.164;2023-05-02T12:42:24;13.80;52.00
76293;DHT22;67256;51.154;4.164;2023-05-02T12:44:50;13.90;52.00
76293;DHT22;67256;51.154;4.164;2023-05-02T12:47:23;13.80;51.60
76293;DHT22;67256;51.154;4.164;2023-05-02T12:49:55;13.80;52.30
76293;DHT22;67256;51.154;4.164;2023-05-02T12:52:51;13.70;52.50
76293;DHT22;67256;51.154;4.164;2023-05-02T12:55:25;13.60;52.60
76293;DHT22;67256;51.154;4.164;2023-05-02T12:58:10;13.60;52.40
76293;DHT22;67256;51.154;4.164;2023-05-02T13:00:39;13.70;52.30
76293;DHT22;67256;51.154;4.164;2023-05-02T13:03:07;13.90;51.70
76293;DHT22;67256;51.154;4.164;2023-05-02T13:05:34;13.80;50.80
76293;DHT22;67256;51.154;4.164;2023-05-02T13:08:00;13.80;52.00
76293;DHT22;67256;51.154;4.164;2023-05-02T13:10:26;13.70;51.90
76293;DHT22;67256;51.154;4.164;2023-05-02T13:12:53;13.60;52.20
76293;DHT22;67256;51.154;4.164;2023-05-02T13:15:18;13.70;50.80
76293;DHT22;67256;51.154;4.164;2023-05-02T13:17:45;13.70;50.40
76293;DHT22;67256;51.154;4.164;2023-05-02T13:20:11;13.70;49.40
76293;DHT22;67256;51.154;4.164;2023-05-02T13:22:37;13.60;49.00
76293;DHT22;67256;51.154;4.164;2023-05-02T13:25:03;13.60;51.10
76293;DHT22;67256;51.154;4.164;2023-05-02T13:27:30;13.70;50.30
76293;DHT22;67256;51.154;4.164;2023-05-02T13:29:55;13.90;50.50
76293;DHT22;67256;51.154;4.164;2023-05-02T13:32:23;13.90;48.40
76293;DHT22;67256;51.154;4.164;2023-05-02T13:34:48;14.00;47.80
76293;DHT22;67256;51.154;4.164;2023-05-02T13:37:15;13.80;48.60
76293;DHT22;67256;51.154;4.164;2023-05-02T13:39:40;13.60;48.40
76293;DHT22;67256;51.154;4.164;2023-05-02T13:42:06;13.60;49.00
76293;DHT22;67256;51.154;4.164;2023-05-02T13:44:32;13.60;47.00
76293;DHT22;67256;51.154;4.164;2023-05-02T13:46:58;13.60;46.90
76293;DHT22;67256;51.154;4.164;2023-05-02T13:49:23;13.70;47.90
76293;DHT22;67256;51.154;4.164;2023-05-02T13:51:49;13.70;46.20
76293;DHT22;67256;51.154;4.164;2023-05-02T13:54:15;13.90;46.40
76293;DHT22;67256;51.154;4.164;2023-05-02T13:56:41;13.90;47.70
76293;DHT22;67256;51.154;4.164;2023-05-02T13:59:08;13.80;47.70
76293;DHT22;67256;51.154;4.164;2023-05-02T14:01:34;13.70;48.20
76293;DHT22;67256;51.154;4.164;2023-05-02T14:04:00;13.70;48.40
76293;DHT22;67256;51.154;4.164;2023-05-02T14:06:31;13.90;47.60
76293;DHT22;67256;51.154;4.164;2023-05-02T14:08:57;13.80;47.80
76293;DHT22;67256;51.154;4.164;2023-05-02T14:11:23;13.70;48.10
76293;DHT22;67256;51.154;4.164;2023-05-02T14:13:52;13.80;48.60
76293;DHT22;67256;51.154;4.164;2023-05-02T14:16:18;13.70;48.20
76293;DHT22;67256;51.154;4.164;2023-05-02T14:18:44;13.80;48.80
76293;DHT22;67256;51.154;4.164;2023-05-02T14:21:10;13.90;47.70
76293;DHT22;67256;51.154;4.164;2023-05-02T14:23:36;13.80;47.30
76293;DHT22;67256;51.154;4.164;2023-05-02T14:26:01;13.90;47.70
76293;DHT22;67256;51.154;4.164;2023-05-02T14:28:31;14.00;48.20
76293;DHT22;67256;51.154;4.164;2023-05-02T14:30:57;14.10;47.60
76293;DHT22;67256;51.154;4.164;2023-05-02T14:33:23;14.20;47.90
76293;DHT22;67256;51.154;4.164;2023-05-02T14:35:49;14.10;46.70
76293;DHT22;67256;51.154;4.164;2023-05-02T14:38:15;14.00;47.00
76293;DHT22;67256;51.154;4.164;2023-05-02T14:40:40;14.00;46.80
76293;DHT22;67256;51.154;4.164;2023-05-02T14:43:06;13.90;47.30
76293;DHT22;67256;51.154;4.164;2023-05-02T14:45:32;13.80;48.00
76293;DHT22;67256;51.154;4.164;2023-05-02T14:47:58;13.80;48.20
76293;DHT22;67256;51.154;4.164;2023-05-02T14:50:24;13.90;48.90
76293;DHT22;67256;51.154;4.164;2023-05-02T14:52:50;14.00;50.10
76293;DHT22;67256;51.154;4.164;2023-05-02T14:55:16;14.00;49.40
76293;DHT22;67256;51.154;4.164;2023-05-02T14:57:42;13.90;49.60
76293;DHT22;67256;51.154;4.164;2023-05-02T15:00:08;14.00;49.30
76293;DHT22;67256;51.154;4.164;2023-05-02T15:02:35;13.90;49.40
76293;DHT22;67256;51.154;4.164;2023-05-02T15:05:01;13.90;49.60
76293;DHT22;67256;51.154;4.164;2023-05-02T15:07:27;13.90;49.70
76293;DHT22;67256;51.154;4.164;2023-05-02T15:09:53;13.90;50.70
76293;DHT22;67256;51.154;4.164;2023-05-02T15:12:19;13.90;50.00
76293;DHT22;67256;51.154;4.164;2023-05-02T15:14:44;14.10;50.40
76293;DHT22;67256;51.154;4.164;2023-05-02T15:17:10;14.20;50.10
76293;DHT22;67256;51.154;4.164;2023-05-02T15:19:36;14.20;50.40
76293;DHT22;67256;51.154;4.164;2023-05-02T15:22:01;14.10;51.90
76293;DHT22;67256;51.154;4.164;2023-05-02T15:24:27;14.10;51.30
76293;DHT22;67256;51.154;4.164;2023-05-02T15:26:53;14.00;51.40
76293;DHT22;67256;51.154;4.164;2023-05-02T15:29:18;14.00;51.90
76293;DHT22;67256;51.154;4.164;2023-05-02T15:31:44;13.90;51.90
76293;DHT22;67256;51.154;4.164;2023-05-02T15:34:10;13.80;52.40
76293;DHT22;67256;51.154;4.164;2023-05-02T15:36:35;13.80;52.30
76293;DHT22;67256;51.154;4.164;2023-05-02T15:39:05;13.80;52.40
76293;DHT22;67256;51.154;4.164;2023-05-02T15:41:31;13.90;52.80
76293;DHT22;67256;51.154;4.164;2023-05-02T15:43:57;14.00;53.30
76293;DHT22;67256;51.154;4.164;2023-05-02T15:46:23;13.90;51.60
76293;DHT22;67256;51.154;4.164;2023-05-02T15:48:49;13.80;53.10
76293;DHT22;67256;51.154;4.164;2023-05-02T15:51:15;13.90;52.40
76293;DHT22;67256;51.154;4.164;2023-05-02T15:53:43;13.90;52.70
76293;DHT22;67256;51.154;4.164;2023-05-02T15:56:11;13.90;52.10
76293;DHT22;67256;51.154;4.164;2023-05-02T15:58:37;13.90;52.20
76293;DHT22;67256;51.154;4.164;2023-05-02T16:01:03;13.90;52.10
76293;DHT22;67256;51.154;4.164;2023-05-02T16:03:30;13.90;52.20
76293;DHT22;67256;51.154;4.164;2023-05-02T16:05:57;13.80;52.10
76293;DHT22;67256;51.154;4.164;2023-05-02T16:08:27;13.60;52.20
76293;DHT22;67256;51.154;4.164;2023-05-02T16:10:53;13.70;52.50
76293;DHT22;67256;51.154;4.164;2023-05-02T16:13:19;13.60;52.40
76293;DHT22;67256;51.154;4.164;2023-05-02T16:15:45;13.60;52.50
76293;DHT22;67256;51.154;4.164;2023-05-02T16:18:13;13.70;52.70
76293;DHT22;67256;51.154;4.164;2023-05-02T16:20:39;13.80;51.80